Time;durP1;ratioP1;P1;durP2;ratioP2;P2;SDS_P1;SDS_P2;PMS_P1;PMS_P2;Temp;Humidity;BMP_temperature;BMP_pressure;BME280_temperature;BME280_humidity;BME280_pressure;Samples;Min_cycle;Max_cycle;Signal;HPM_P1;HPM_P2
2023/10/18 00:01:05;;;;;;;10.90;9.80;;;9.30;99.90;;;;;;5052997;28;20051;-88
2023/10/18 00:03:32;;;;;;;13.55;9.75;;;9.20;99.90;;;;;;5051790;28;20029;-88
2023/10/18 00:06:02;;;;;;;11.57;10.43;;;9.20;99.90;;;;;;5049049;28;20029;-88
2023/10/18 00:08:28;;;;;;;11.65;10.10;;;9.20;99.90;;;;;;5052798;28;20481;-89
2023/10/18 00:10:53;;;;;;;11.63;10.43;;;9.20;99.90;;;;;;5052306;28;20050;-90
2023/10/18 00:13:22;;;;;;;13.23;10.50;;;9.20;99.90;;;;;;5053060;28;20025;-89
2023/10/18 00:15:53;;;;;;;12.05;9.73;;;10.30;99.90;;;;;;5052552;28;20536;-89
2023/10/18 00:18:20;;;;;;;13.75;9.77;;;9.20;99.90;;;;;;5053398;28;20041;-90
2023/10/18 00:20:46;;;;;;;10.98;9.98;;;9.20;99.90;;;;;;5052294;28;20025;-88
2023/10/18 00:23:11;;;;;;;10.43;9.35;;;9.20;99.90;;;;;;5052917;28;20108;-89
2023/10/18 00:25:37;;;;;;;12.05;10.13;;;9.20;99.90;;;;;;5051337;28;20025;-90
2023/10/18 00:28:08;;;;;;;12.25;10.27;;;9.80;99.90;;;;;;5052556;28;20496;-90
2023/10/18 00:30:35;;;;;;;13.68;9.05;;;9.10;99.90;;;;;;5052650;28;20037;-89
2023/10/18 00:33:01;;;;;;;12.18;10.32;;;9.10;99.90;;;;;;5052003;28;20477;-89
2023/10/18 00:35:36;;;;;;;11.85;9.52;;;8.90;99.90;;;;;;5053061;28;20037;-89
2023/10/18 00:38:03;;;;;;;12.98;9.75;;;8.90;99.90;;;;;;5053010;28;20032;-91
2023/10/18 00:43:20;;;;;;;11.85;10.10;;;9.00;99.90;;;;;;5052702;28;20079;-89
2023/10/18 00:45:47;;;;;;;11.70;9.98;;;9.00;99.90;;;;;;5048653;28;20037;-89
2023/10/18 00:48:14;;;;;;;11.13;9.95;;;9.10;99.90;;;;;;5052661;28;20056;-88
2023/10/18 00:50:43;;;;;;;10.93;9.75;;;9.10;99.90;;;;;;5052117;28;20021;-88
2023/10/18 00:53:11;;;;;;;11.50;9.65;;;9.10;99.90;;;;;;5051816;28;20029;-88
2023/10/18 00:55:37;;;;;;;12.63;9.90;;;9.10;99.90;;;;;;5052033;28;20028;-87
2023/10/18 00:58:07;;;;;;;12.95;9.05;;;9.10;99.90;;;;;;5051954;28;20074;-88
2023/10/18 01:00:35;;;;;;;10.68;9.20;;;9.10;99.90;;;;;;5053288;28;20029;-88
2023/10/18 01:03:06;;;;;;;9.40;8.35;;;9.10;99.90;;;;;;5062989;28;20035;-89
2023/10/18 01:05:32;;;;;;;;;;;9.10;99.90;;;;;;5068689;28;20029;-90
2023/10/18 01:07:59;;;;;;;11.48;8.73;;;9.10;99.90;;;;;;5045638;28;20218;-88
2023/10/18 01:10:24;;;;;;;9.45;8.55;;;9.10;99.90;;;;;;5033074;28;20030;-89
2023/10/18 01:12:53;;;;;;;10.80;9.70;;;9.10;99.90;;;;;;5032509;28;20025;-89
2023/10/18 01:15:21;;;;;;;13.32;8.77;;;9.10;99.90;;;;;;5031853;28;20029;-89
2023/10/18 01:17:47;;;;;;;10.75;9.10;;;9.10;99.90;;;;;;5032558;28;20105;-89
2023/10/18 01:20:47;;;;;;;13.30;9.98;;;9.20;99.90;;;;;;5032577;28;20022;-89
2023/10/18 01:23:07;;;;;;;10.23;9.13;;;9.20;99.90;;;;;;5028162;28;20401;-89
2023/10/18 01:25:34;;;;;;;11.57;9.40;;;9.20;99.90;;;;;;5051156;28;20491;-89
2023/10/18 01:28:00;;;;;;;12.73;8.55;;;9.20;99.90;;;;;;5032138;28;20496;-89
2023/10/18 01:30:26;;;;;;;12.48;8.75;;;9.10;99.90;;;;;;5032553;28;20473;-89
2023/10/18 01:32:51;;;;;;;10.57;9.50;;;9.10;99.90;;;;;;5033265;28;20029;-91
2023/10/18 01:35:17;;;;;;;13.68;10.18;;;9.10;99.90;;;;;;5035711;28;20204;-90
2023/10/18 01:37:46;;;;;;;11.98;8.98;;;10.30;99.90;;;;;;5035995;28;20022;-90
2023/10/18 01:40:21;;;;;;;10.73;8.95;;;9.10;99.90;;;;;;5036373;28;20025;-89
2023/10/18 01:42:58;;;;;;;10.38;9.30;;;9.10;99.90;;;;;;5038965;28;20458;-89
2023/10/18 01:45:28;;;;;;;9.82;8.93;;;9.10;99.90;;;;;;5053936;28;20025;-90
2023/10/18 01:47:54;;;;;;;11.77;8.90;;;9.30;99.90;;;;;;5055282;28;20059;-90
2023/10/18 01:50:21;;;;;;;11.82;8.82;;;9.10;99.90;;;;;;5055728;28;20048;-90
2023/10/18 01:52:46;;;;;;;10.15;9.05;;;9.00;99.90;;;;;;5056115;28;20029;-90
2023/10/18 01:55:12;;;;;;;11.32;8.60;;;9.10;99.90;;;;;;5056947;28;20051;-90
2023/10/18 01:57:43;;;;;;;10.75;8.55;;;9.10;99.90;;;;;;5055874;28;20047;-89
2023/10/18 02:00:15;;;;;;;20.38;10.20;;;9.00;99.90;;;;;;5055639;28;20499;-90
2023/10/18 02:02:46;;;;;;;10.63;8.60;;;9.00;99.90;;;;;;5055529;28;20033;-90
2023/10/18 02:05:15;;;;;;;11.73;8.60;;;8.90;99.90;;;;;;5055083;28;20029;-87
2023/10/18 02:07:41;;;;;;;11.25;8.95;;;8.90;99.90;;;;;;5055601;28;20040;-89
2023/10/18 02:10:07;;;;;;;11.73;8.65;;;8.90;99.90;;;;;;5055453;28;20033;-90
2023/10/18 02:12:33;;;;;;;14.50;8.73;;;8.90;99.90;;;;;;5055718;28;20031;-89
2023/10/18 02:15:01;;;;;;;13.75;8.95;;;8.90;99.90;;;;;;5056109;28;20090;-89
2023/10/18 02:17:27;;;;;;;10.43;8.63;;;8.90;99.90;;;;;;5055266;28;20465;-88
2023/10/18 02:19:53;;;;;;;10.82;8.75;;;8.90;99.90;;;;;;5058203;28;20059;-87
2023/10/18 02:22:19;;;;;;;11.20;8.85;;;8.90;99.90;;;;;;5055465;28;20025;-89
2023/10/18 02:24:45;;;;;;;9.88;8.88;;;8.90;99.90;;;;;;5053870;28;20021;-89
2023/10/18 02:27:15;;;;;;;11.65;9.32;;;8.90;99.90;;;;;;5055318;28;20115;-87
2023/10/18 02:29:41;;;;;;;12.98;8.73;;;8.90;99.90;;;;;;5054803;28;20071;-87
2023/10/18 02:32:21;;;;;;;9.77;8.38;;;8.90;99.90;;;;;;5054531;28;20021;-88
2023/10/18 02:34:47;;;;;;;11.00;9.13;;;8.90;99.90;;;;;;5054202;28;20400;-87
2023/10/18 02:37:15;;;;;;;9.48;8.48;;;8.90;99.90;;;;;;5054935;28;20025;-88
2023/10/18 02:39:41;;;;;;;9.18;7.55;;;8.90;99.90;;;;;;5060879;28;20496;-89
2023/10/18 02:42:07;;;;;;;9.40;8.23;;;8.90;99.90;;;;;;5054639;28;20021;-88
2023/10/18 02:44:35;;;;;;;9.82;8.15;;;8.90;99.90;;;;;;5053580;28;20028;-87
2023/10/18 02:49:41;;;;;;;;;;;8.80;99.90;;;;;;5060595;28;20048;-88
2023/10/18 02:52:09;;;;;;;9.80;8.02;;;8.70;99.90;;;;;;5041688;28;19904;-87
2023/10/18 02:54:35;;;;;;;9.30;8.10;;;8.70;99.90;;;;;;5054166;28;20037;-87
2023/10/18 02:57:01;;;;;;;10.07;7.97;;;8.70;99.90;;;;;;5053882;28;20464;-88
2023/10/18 02:59:27;;;;;;;11.43;8.45;;;8.70;99.90;;;;;;5053496;28;20078;-87
2023/10/18 03:01:57;;;;;;;10.52;8.07;;;8.70;99.90;;;;;;5053942;28;20045;-89
2023/10/18 03:04:29;;;;;;;11.15;7.78;;;8.80;99.90;;;;;;5054399;28;20032;-88
2023/10/18 03:06:57;;;;;;;9.02;8.10;;;8.70;99.90;;;;;;5053074;28;20033;-88
2023/10/18 03:11:57;;;;;;;9.23;8.02;;;8.70;99.90;;;;;;5053789;28;20496;-88
2023/10/18 03:14:54;;;;;;;7.95;7.15;;;8.80;99.90;;;;;;5054496;28;20052;-88
2023/10/18 03:17:24;;;;;;;12.38;8.05;;;8.80;99.90;;;;;;5054047;28;20036;-89
2023/10/18 03:19:51;;;;;;;9.60;7.53;;;8.80;99.90;;;;;;5054286;28;20036;-88
2023/10/18 03:22:20;;;;;;;13.32;8.70;;;8.90;99.90;;;;;;5053705;28;20025;-88
2023/10/18 03:24:54;;;;;;;8.17;7.33;;;8.80;99.90;;;;;;5053744;28;20087;-87
2023/10/18 03:27:20;;;;;;;7.93;7.05;;;8.80;99.90;;;;;;5054249;28;20029;-88
2023/10/18 03:29:45;;;;;;;9.93;8.25;;;8.80;99.90;;;;;;5052877;28;20116;-88
2023/10/18 03:32:19;;;;;;;11.07;7.88;;;9.50;99.90;;;;;;5056597;28;20048;-88
2023/10/18 03:34:45;;;;;;;11.52;7.43;;;8.70;99.90;;;;;;5053436;28;20049;-88
2023/10/18 03:37:26;;;;;;;10.77;8.25;;;8.70;99.90;;;;;;5053310;28;20486;-89
2023/10/18 03:39:55;;;;;;;9.32;7.63;;;8.80;99.90;;;;;;5053453;28;20465;-89
2023/10/18 03:42:33;;;;;;;13.02;8.18;;;8.70;99.90;;;;;;5063484;28;20048;-88
2023/10/18 03:44:59;;;;;;;10.02;7.72;;;8.70;99.90;;;;;;5053592;28;20116;-88
2023/10/18 03:47:28;;;;;;;9.25;7.22;;;8.70;99.90;;;;;;5053287;28;20017;-89
2023/10/18 03:49:55;;;;;;;8.40;7.50;;;8.70;99.90;;;;;;5052538;28;20481;-89
2023/10/18 03:52:21;;;;;;;7.88;7.18;;;8.80;99.90;;;;;;5052759;28;20369;-90
2023/10/18 03:57:27;;;;;;;7.97;7.18;;;8.70;99.90;;;;;;5052531;28;20024;-88
2023/10/18 03:59:55;;;;;;;13.10;7.75;;;8.60;99.90;;;;;;5053089;28;20476;-88
2023/10/18 04:02:27;;;;;;;9.77;7.75;;;8.60;99.90;;;;;;5054051;28;20032;-89
2023/10/18 04:05:00;;;;;;;9.27;7.95;;;8.60;99.90;;;;;;5053016;28;20033;-87
2023/10/18 04:07:26;;;;;;;10.23;7.57;;;8.60;99.90;;;;;;5053322;28;20021;-89
2023/10/18 04:09:53;;;;;;;10.35;8.05;;;8.60;99.90;;;;;;5053042;28;20056;-87
2023/10/18 04:12:21;;;;;;;13.48;7.90;;;8.60;99.90;;;;;;5053416;28;20017;-88
2023/10/18 04:14:55;;;;;;;7.97;6.90;;;8.60;99.90;;;;;;5052468;28;20489;-88
2023/10/18 04:20:01;;;;;;;9.02;7.25;;;9.60;99.90;;;;;;5053583;28;20456;-90
2023/10/18 04:22:28;;;;;;;9.52;7.82;;;8.70;99.90;;;;;;5066986;28;20441;-90
2023/10/18 04:25:01;;;;;;;8.85;6.88;;;9.40;99.90;;;;;;5067226;28;20029;-88
2023/10/18 04:27:26;;;;;;;11.55;7.45;;;9.60;99.90;;;;;;5066037;28;20535;-89
2023/10/18 04:29:56;;;;;;;10.07;6.90;;;9.10;99.90;;;;;;5058652;28;20041;-88
2023/10/18 04:32:31;;;;;;;9.50;7.20;;;8.10;99.90;;;;;;5053616;28;20024;-88
2023/10/18 04:34:57;;;;;;;10.82;7.35;;;8.60;99.90;;;;;;5051819;28;20080;-87
2023/10/18 04:37:23;;;;;;;14.23;7.50;;;9.70;99.90;;;;;;5054670;28;20465;-89
2023/10/18 04:39:48;;;;;;;8.68;7.22;;;8.50;99.90;;;;;;5053213;28;20033;-87
2023/10/18 04:42:17;;;;;;;8.88;7.35;;;8.70;99.90;;;;;;5052231;28;20035;-87
2023/10/18 04:44:49;;;;;;;7.13;6.53;;;8.70;99.90;;;;;;5052166;28;20040;-88
2023/10/18 04:47:14;;;;;;;9.43;7.85;;;8.70;99.90;;;;;;5052236;28;20489;-87
2023/10/18 04:50:00;;;;;;;12.45;7.15;;;8.70;99.90;;;;;;5051673;28;20044;-87
2023/10/18 04:52:40;;;;;;;11.07;7.38;;;8.70;99.90;;;;;;5052438;28;20029;-87
2023/10/18 04:55:14;;;;;;;8.98;7.07;;;8.70;99.90;;;;;;5052351;28;20469;-93
2023/10/18 04:57:43;;;;;;;7.60;6.80;;;8.70;99.90;;;;;;5052121;28;20029;-93
2023/10/18 05:00:24;;;;;;;9.05;7.13;;;8.70;99.90;;;;;;5052329;28;20040;-90
2023/10/18 05:02:53;;;;;;;17.60;7.65;;;8.70;99.90;;;;;;5051977;28;20029;-88
2023/10/18 05:05:20;;;;;;;9.65;7.65;;;8.70;99.90;;;;;;5052374;28;20036;-88
2023/10/18 05:07:48;;;;;;;7.85;6.63;;;8.70;99.90;;;;;;5053552;28;20530;-87
2023/10/18 05:10:15;;;;;;;8.48;7.20;;;8.70;99.90;;;;;;5063253;22;20067;-88
2023/10/18 05:12:48;;;;;;;9.40;7.75;;;8.70;99.90;;;;;;5056141;28;20027;-88
2023/10/18 05:15:18;;;;;;;10.75;7.93;;;9.20;99.90;;;;;;5062813;22;20048;-88
2023/10/18 05:17:47;;;;;;;7.88;6.82;;;8.70;99.90;;;;;;5055628;28;20500;-87
2023/10/18 05:22:48;;;;;;;9.60;8.27;;;8.60;99.90;;;;;;5056894;28;20036;-88
2023/10/18 05:27:47;;;;;;;9.25;7.20;;;8.60;99.90;;;;;;5055374;28;20029;-87
2023/10/18 05:30:16;;;;;;;8.77;7.43;;;8.60;99.90;;;;;;5055999;28;20028;-89
2023/10/18 05:33:03;;;;;;;12.13;7.88;;;8.60;99.90;;;;;;5064234;28;20036;-89
2023/10/18 05:35:34;;;;;;;10.15;8.35;;;8.60;99.90;;;;;;5055733;28;20056;-88
2023/10/18 05:38:06;;;;;;;8.63;7.65;;;8.60;99.90;;;;;;5055366;28;20021;-88
2023/10/18 05:43:30;;;;;;;10.38;7.90;;;8.60;99.90;;;;;;5051584;28;20036;-89
2023/10/18 05:45:56;;;;;;;10.80;8.32;;;8.60;99.90;;;;;;5055726;28;20045;-88
2023/10/18 05:48:23;;;;;;;11.30;8.02;;;8.60;99.90;;;;;;5055348;28;20041;-90
2023/10/18 05:50:49;;;;;;;10.77;7.60;;;8.60;99.90;;;;;;5055754;28;20025;-90
2023/10/18 05:53:18;;;;;;;9.68;8.00;;;8.60;99.90;;;;;;5056198;28;20075;-89
2023/10/18 05:55:52;;;;;;;11.32;8.02;;;8.50;99.90;;;;;;5055111;28;20025;-89
2023/10/18 05:58:25;;;;;;;8.63;7.80;;;8.50;99.90;;;;;;5056135;28;20029;-88
2023/10/18 06:00:58;;;;;;;8.35;7.55;;;8.50;99.90;;;;;;5054913;28;20040;-87
2023/10/18 06:03:26;;;;;;;12.45;8.45;;;8.50;99.90;;;;;;5055091;28;20393;-88
2023/10/18 06:05:58;;;;;;;10.75;8.63;;;8.50;99.90;;;;;;5055670;28;20029;-89
2023/10/18 06:08:24;;;;;;;11.32;8.10;;;8.40;99.90;;;;;;5054746;28;20068;-88
2023/10/18 06:10:58;;;;;;;9.02;8.10;;;8.50;99.90;;;;;;5054457;28;20033;-88
2023/10/18 06:13:26;;;;;;;8.90;7.90;;;8.40;99.90;;;;;;5054469;28;20021;-86
2023/10/18 06:15:52;;;;;;;9.02;8.13;;;8.40;99.90;;;;;;5054421;28;20044;-88
2023/10/18 06:18:26;;;;;;;11.57;8.68;;;9.00;99.90;;;;;;5054914;28;20027;-85
2023/10/18 06:20:53;;;;;;;11.18;8.30;;;8.40;99.90;;;;;;5059589;28;20099;-89
2023/10/18 06:25:50;;;;;;;9.55;7.72;;;8.40;99.90;;;;;;5057827;28;20040;-88
2023/10/18 06:28:24;;;;;;;10.10;7.50;;;8.40;99.90;;;;;;5058653;28;20029;-87
2023/10/18 06:30:51;;;;;;;10.98;7.70;;;8.40;99.90;;;;;;5053715;28;20040;-87
2023/10/18 06:33:19;;;;;;;11.07;8.07;;;8.40;99.90;;;;;;5054724;28;20036;-87
2023/10/18 06:35:52;;;;;;;9.23;8.23;;;8.40;99.90;;;;;;5053931;28;20029;-88
2023/10/18 06:38:24;;;;;;;19.30;9.25;;;8.40;99.90;;;;;;5055687;28;20056;-89
2023/10/18 06:41:00;;;;;;;10.68;8.32;;;8.40;99.90;;;;;;5054844;28;20029;-87
2023/10/18 06:43:26;;;;;;;11.50;8.65;;;8.40;99.90;;;;;;5054800;28;20021;-90
2023/10/18 06:45:57;;;;;;;9.48;7.85;;;8.40;99.90;;;;;;5054045;28;20083;-90
2023/10/18 06:48:26;;;;;;;10.70;7.57;;;8.40;99.90;;;;;;5053629;28;20112;-89
2023/10/18 06:50:53;;;;;;;11.43;7.65;;;8.40;99.90;;;;;;5054093;28;20313;-87
2023/10/18 06:53:20;;;;;;;10.32;7.80;;;8.30;99.90;;;;;;5053144;28;20071;-89
2023/10/18 06:55:56;;;;;;;15.98;8.07;;;8.40;99.90;;;;;;5053081;28;20108;-89
2023/10/18 07:00:55;;;;;;;8.68;7.55;;;8.40;99.90;;;;;;5052762;28;20017;-86
2023/10/18 07:03:33;;;;;;;15.35;8.32;;;8.40;99.90;;;;;;5058840;28;20036;-90
2023/10/18 07:06:04;;;;;;;12.55;9.25;;;8.30;99.90;;;;;;5052630;28;20029;-86
2023/10/18 07:08:33;;;;;;;9.00;7.00;;;8.30;99.90;;;;;;5053968;28;20067;-88
2023/10/18 07:11:01;;;;;;;9.07;7.70;;;8.30;99.90;;;;;;5054389;28;20028;-86
2023/10/18 07:13:33;;;;;;;11.95;7.28;;;8.30;99.90;;;;;;5053814;28;20048;-87
2023/10/18 07:16:05;;;;;;;9.18;7.80;;;8.40;99.90;;;;;;5047526;28;20029;-87
2023/10/18 07:18:33;;;;;;;10.55;8.18;;;8.40;99.90;;;;;;5045178;28;20037;-87
2023/10/18 07:21:05;;;;;;;9.68;7.25;;;8.40;99.90;;;;;;5053056;28;20108;-87
2023/10/18 07:23:36;;;;;;;11.13;7.68;;;8.40;99.90;;;;;;5064507;28;20119;-86
2023/10/18 07:26:07;;;;;;;10.18;7.93;;;8.40;99.90;;;;;;5052995;28;20025;-84
2023/10/18 07:28:35;;;;;;;7.47;6.50;;;8.40;99.90;;;;;;5052721;28;20044;-86
2023/10/18 07:31:08;;;;;;;9.02;7.63;;;8.40;99.90;;;;;;5053220;28;20037;-87
2023/10/18 07:33:39;;;;;;;8.93;7.15;;;8.60;99.90;;;;;;5053212;28;20052;-86
2023/10/18 07:36:07;;;;;;;10.98;8.05;;;8.50;99.90;;;;;;5053501;28;20039;-86
2023/10/18 07:38:32;;;;;;;10.02;7.13;;;8.50;99.90;;;;;;5053712;28;20465;-87
2023/10/18 07:41:01;;;;;;;12.65;7.53;;;8.50;99.90;;;;;;5053748;28;20020;-85
2023/10/18 07:43:26;;;;;;;11.43;8.48;;;8.50;99.90;;;;;;5060868;28;20067;-87
2023/10/18 07:45:53;;;;;;;11.88;7.85;;;8.50;99.90;;;;;;5059929;28;20017;-86
2023/10/18 07:48:20;;;;;;;13.25;8.25;;;8.50;99.90;;;;;;5058504;28;20021;-89
2023/10/18 07:50:52;;;;;;;10.40;8.13;;;8.50;99.90;;;;;;5052570;28;20040;-86
2023/10/18 07:53:20;;;;;;;11.52;7.43;;;8.50;99.90;;;;;;5040890;28;20021;-88
2023/10/18 07:55:48;;;;;;;9.48;7.47;;;8.50;99.90;;;;;;5050567;28;20074;-87
2023/10/18 07:58:17;;;;;;;11.68;7.63;;;8.60;99.90;;;;;;5051758;28;20025;-86
2023/10/18 08:03:31;;;;;;;19.13;8.00;;;8.60;99.90;;;;;;5051257;28;20021;-87
2023/10/18 08:05:57;;;;;;;10.68;7.18;;;8.60;99.90;;;;;;5048531;28;20036;-88
2023/10/18 08:08:41;;;;;;;12.57;7.45;;;8.60;99.90;;;;;;5049360;28;20032;-87
2023/10/18 08:11:11;;;;;;;8.05;6.90;;;8.60;99.90;;;;;;5051529;28;20446;-88
2023/10/18 08:13:49;;;;;;;8.57;6.82;;;9.40;99.90;;;;;;5049446;28;20055;-87
2023/10/18 08:16:19;;;;;;;11.02;8.38;;;9.70;99.90;;;;;;5055792;28;20076;-86
2023/10/18 08:18:53;;;;;;;9.77;7.30;;;9.60;99.90;;;;;;5053816;28;20029;-87
2023/10/18 08:21:40;;;;;;;14.70;7.47;;;9.30;99.90;;;;;;5052806;28;20024;-91
2023/10/18 08:24:09;;;;;;;10.75;7.75;;;8.80;99.90;;;;;;5050538;28;20061;-91
2023/10/18 08:26:51;;;;;;;9.40;8.27;;;8.70;99.90;;;;;;5049241;28;20025;-89
2023/10/18 08:29:17;;;;;;;9.20;7.45;;;8.90;99.90;;;;;;5045129;28;20032;-88
2023/10/18 08:32:04;;;;;;;11.90;7.57;;;8.80;99.90;;;;;;5052277;28;20025;-87
2023/10/18 08:34:31;;;;;;;9.15;7.20;;;9.90;99.90;;;;;;5045533;28;20022;-92
2023/10/18 08:37:04;;;;;;;11.20;8.00;;;8.50;99.90;;;;;;5046306;28;20033;-87
2023/10/18 08:39:33;;;;;;;8.90;7.30;;;8.40;99.90;;;;;;5062706;28;20033;-89
2023/10/18 08:42:24;;;;;;;8.43;7.57;;;9.10;99.90;;;;;;5055370;28;20104;-91
2023/10/18 08:45:19;;;;;;;9.48;6.57;;;9.10;99.90;;;;;;5059899;28;20059;-91
2023/10/18 08:47:49;;;;;;;7.55;6.82;;;10.20;99.90;;;;;;5053128;28;20024;-87
2023/10/18 08:50:32;;;;;;;8.05;7.05;;;10.40;99.90;;;;;;5048510;28;20040;-90
2023/10/18 08:52:58;;;;;;;9.50;8.15;;;9.50;99.90;;;;;;5055263;28;20067;-89
2023/10/18 08:55:43;;;;;;;13.48;8.23;;;10.10;99.90;;;;;;5058602;28;20060;-90
2023/10/18 08:58:15;;;;;;;11.35;6.97;;;10.00;99.90;;;;;;5055418;28;20016;-89
2023/10/18 09:03:20;;;;;;;8.85;6.43;;;10.00;99.90;;;;;;5058843;28;20504;-90
2023/10/18 09:05:48;;;;;;;8.77;6.73;;;9.80;99.90;;;;;;5056026;28;20051;-94
2023/10/18 09:08:19;;;;;;;9.05;6.75;;;10.10;99.90;;;;;;5056922;28;20053;-89
2023/10/18 09:10:54;;;;;;;11.25;6.97;;;10.70;99.90;;;;;;5047356;28;20020;-89
2023/10/18 09:16:11;;;;;;;9.35;7.63;;;10.40;99.90;;;;;;5055522;28;20120;-90
2023/10/18 09:18:37;;;;;;;7.85;6.07;;;9.40;99.90;;;;;;5065114;28;20041;-90
2023/10/18 09:23:59;;;;;;;9.18;6.60;;;10.60;99.90;;;;;;5050736;28;20031;-89
2023/10/18 09:26:42;;;;;;;6.97;6.25;;;10.20;99.90;;;;;;5050996;28;20091;-88
2023/10/18 09:29:26;;;;;;;16.73;7.28;;;10.20;99.90;;;;;;5055664;28;20404;-89
2023/10/18 09:34:38;;;;;;;8.05;6.95;;;10.60;99.90;;;;;;5056253;28;20040;-91
2023/10/18 09:37:10;;;;;;;7.97;6.60;;;9.80;99.90;;;;;;5059397;28;20041;-89
2023/10/18 09:39:42;;;;;;;8.52;7.35;;;9.90;99.90;;;;;;5052972;28;20092;-91
2023/10/18 09:42:30;;;;;;;9.27;7.00;;;10.60;99.90;;;;;;5053161;28;20461;-91
2023/10/18 09:44:56;;;;;;;9.07;6.63;;;9.80;99.90;;;;;;5057607;28;20028;-91
2023/10/18 09:47:42;;;;;;;7.75;6.03;;;10.90;99.90;;;;;;5056402;28;20226;-91
2023/10/18 09:50:28;;;;;;;9.43;6.13;;;9.90;99.90;;;;;;5057125;28;20045;-91
2023/10/18 09:52:59;;;;;;;6.60;5.90;;;9.90;99.90;;;;;;5064806;28;20056;-91
2023/10/18 09:55:42;;;;;;;6.45;5.78;;;10.50;99.90;;;;;;5058643;28;20021;-90
2023/10/18 09:58:18;;;;;;;10.85;6.10;;;11.30;99.90;;;;;;5063522;28;20022;-91
2023/10/18 10:00:56;;;;;;;8.25;6.40;;;11.10;99.90;;;;;;5022026;28;20831;-88
2023/10/18 10:03:24;;;;;;;6.80;6.20;;;11.20;99.90;;;;;;5051108;28;20113;-91
2023/10/18 10:08:37;;;;;;;10.13;6.28;;;10.40;99.90;;;;;;5061493;28;20203;-90
2023/10/18 10:11:13;;;;;;;7.22;6.05;;;11.10;99.90;;;;;;5054461;28;20024;-93
2023/10/18 10:13:39;;;;;;;7.20;6.50;;;10.10;99.90;;;;;;5035185;28;20099;-92
2023/10/18 10:16:09;;;;;;;9.50;7.30;;;11.20;99.90;;;;;;5055465;28;20025;-91
2023/10/18 10:18:52;;;;;;;9.25;7.15;;;11.40;99.90;;;;;;5053991;28;21091;-93
2023/10/18 10:21:37;;;;;;;7.80;5.82;;;10.20;99.90;;;;;;5051847;28;20108;-92
2023/10/18 10:24:29;;;;;;;8.18;6.25;;;10.00;99.90;;;;;;5053936;28;20029;-92
2023/10/18 10:28:14;;;;;;;13.38;6.57;;;10.40;99.90;;;;;;5053448;28;20033;-91
2023/10/18 10:32:49;;;;;;;10.52;6.53;;;11.90;99.90;;;;;;5057695;28;20024;-92
2023/10/18 10:35:17;;;;;;;8.15;5.95;;;10.80;99.90;;;;;;5052763;28;20028;-93
2023/10/18 10:38:14;;;;;;;9.90;6.35;;;10.70;99.90;;;;;;5057559;28;20021;-90
2023/10/18 10:41:19;;;;;;;6.88;6.20;;;10.50;99.90;;;;;;5050401;28;20024;-91
2023/10/18 10:44:48;;;;;;;7.93;6.03;;;12.00;99.90;;;;;;5047183;28;20440;-86
2023/10/18 10:47:31;;;;;;;9.10;6.80;;;10.70;99.90;;;;;;4960689;28;20552;-92
2023/10/18 10:50:10;;;;;;;6.75;6.15;;;11.40;99.90;;;;;;4971515;28;20335;-92
2023/10/18 10:52:44;;;;;;;7.53;6.33;;;11.50;99.90;;;;;;5034369;28;20045;-92
2023/10/18 10:55:22;;;;;;;7.80;5.80;;;11.70;99.90;;;;;;5062267;28;20300;-92
2023/10/18 10:57:50;;;;;;;8.65;6.80;;;11.00;99.90;;;;;;5073469;28;20305;-90
2023/10/18 11:00:39;;;;;;;9.55;6.13;;;12.10;99.90;;;;;;5069605;28;20013;-90
2023/10/18 11:03:27;;;;;;;7.38;6.57;;;10.80;99.90;;;;;;5060469;28;20028;-92
2023/10/18 11:05:58;;;;;;;6.95;6.35;;;10.90;99.90;;;;;;5049247;28;20037;-92
2023/10/18 11:08:25;;;;;;;8.05;5.93;;;12.00;99.90;;;;;;5054492;28;20029;-90
2023/10/18 11:11:09;;;;;;;9.13;6.28;;;12.10;99.90;;;;;;5054493;28;20040;-89
2023/10/18 11:13:36;;;;;;;10.13;6.72;;;12.40;99.90;;;;;;5048386;28;20112;-88
2023/10/18 11:16:04;;;;;;;15.25;7.00;;;10.90;99.90;;;;;;5047949;28;20053;-86
2023/10/18 11:18:34;;;;;;;7.63;6.85;;;11.20;99.90;;;;;;5044770;28;20092;-84
2023/10/18 11:24:04;;;;;;;7.40;6.07;;;12.20;99.90;;;;;;5039272;28;20079;-87
2023/10/18 11:26:38;;;;;;;17.65;6.95;;;11.70;99.90;;;;;;5048033;28;20028;-83
2023/10/18 11:29:08;;;;;;;10.48;7.25;;;11.40;99.90;;;;;;5051488;28;20126;-87
2023/10/18 11:31:38;;;;;;;7.63;6.72;;;12.40;99.90;;;;;;5051174;28;20489;-87
2023/10/18 11:34:07;;;;;;;8.48;6.40;;;12.30;99.90;;;;;;5047998;28;20029;-86
2023/10/18 11:36:51;;;;;;;6.75;6.13;;;11.50;99.90;;;;;;5053822;28;20115;-92
2023/10/18 11:39:18;;;;;;;9.98;7.05;;;11.50;99.90;;;;;;5059302;28;20431;-87
2023/10/18 11:41:59;;;;;;;8.77;6.78;;;12.40;99.90;;;;;;5058612;28;20100;-91
2023/10/18 11:44:34;;;;;;;11.43;7.38;;;12.60;99.90;;;;;;5059989;28;20104;-91
2023/10/18 11:47:19;;;;;;;9.77;6.78;;;12.80;99.90;;;;;;5054585;28;20108;-92
2023/10/18 11:49:48;;;;;;;8.80;6.55;;;12.90;99.90;;;;;;5055652;28;20025;-92
2023/10/18 11:52:16;;;;;;;9.88;6.50;;;12.90;99.90;;;;;;5054406;28;20054;-90
2023/10/18 11:55:08;;;;;;;11.68;7.20;;;13.10;99.90;;;;;;5072108;28;20025;-89
2023/10/18 11:57:40;;;;;;;9.88;6.70;;;11.90;99.90;;;;;;5030713;28;20128;-90
2023/10/18 12:00:35;;;;;;;8.65;7.75;;;12.90;99.90;;;;;;5035370;28;20029;-89
2023/10/18 12:03:08;;;;;;;8.50;6.88;;;12.00;99.90;;;;;;5036567;28;20045;-88
2023/10/18 12:05:59;;;;;;;11.10;6.85;;;12.20;99.90;;;;;;5034415;28;20053;-91
2023/10/18 12:08:25;;;;;;;8.70;6.47;;;12.10;99.90;;;;;;5036853;28;20481;-91
2023/10/18 12:11:17;;;;;;;9.10;7.10;;;13.20;99.90;;;;;;5053975;28;20025;-91
2023/10/18 12:14:07;;;;;;;9.00;7.18;;;12.20;99.90;;;;;;4980802;28;20034;-91
2023/10/18 12:16:54;;;;;;;7.03;6.38;;;12.30;99.90;;;;;;5053065;28;20033;-90
2023/10/18 12:19:27;;;;;;;11.80;6.60;;;13.30;99.90;;;;;;5053246;28;20104;-89
2023/10/18 12:21:59;;;;;;;13.68;7.63;;;12.20;99.90;;;;;;5052838;28;20040;-90
2023/10/18 12:24:43;;;;;;;7.55;6.85;;;13.40;99.90;;;;;;5053497;28;20033;-88
2023/10/18 12:32:51;;;;;;;10.52;6.57;;;12.30;99.90;;;;;;5054266;28;20075;-92
2023/10/18 12:35:48;;;;;;;7.78;6.50;;;12.30;99.90;;;;;;5060219;28;20083;-89
2023/10/18 12:38:32;;;;;;;7.53;6.68;;;12.50;99.90;;;;;;5047603;28;20029;-90
2023/10/18 12:41:04;;;;;;;9.30;6.68;;;12.60;99.90;;;;;;5053379;28;20071;-89
2023/10/18 12:43:47;;;;;;;10.98;7.80;;;13.40;99.90;;;;;;5052680;28;20385;-89
2023/10/18 12:46:17;;;;;;;10.23;7.60;;;13.50;99.90;;;;;;5053801;28;20085;-91
2023/10/18 12:48:57;;;;;;;10.53;7.57;;;13.80;99.90;;;;;;5061726;28;20021;-86
2023/10/18 12:51:30;;;;;;;11.43;6.97;;;13.10;99.90;;;;;;5111527;22;20045;-90
2023/10/18 12:54:05;;;;;;;10.32;7.80;;;13.60;99.90;;;;;;4997262;28;20030;-90
2023/10/18 12:57:09;;;;;;;8.35;7.55;;;12.80;99.90;;;;;;5033155;28;20033;-91
2023/10/18 13:02:51;;;;;;;10.68;6.95;;;14.00;99.90;;;;;;5027845;28;20091;-90
2023/10/18 13:05:18;;;;;;;11.98;7.20;;;12.50;99.90;;;;;;5015872;28;20055;-90
2023/10/18 13:08:15;;;;;;;8.75;7.40;;;13.60;99.90;;;;;;5033679;28;20021;-90
2023/10/18 13:13:32;;;;;;;7.45;6.72;;;14.40;99.90;;;;;;5034037;28;20022;-91
2023/10/18 13:15:58;;;;;;;9.88;6.85;;;13.10;99.90;;;;;;5033801;28;20036;-90
2023/10/18 13:18:39;;;;;;;8.13;7.32;;;13.20;99.90;;;;;;5049400;28;20579;-91
2023/10/18 13:21:29;;;;;;;8.27;6.85;;;13.40;99.90;;;;;;5054463;28;20025;-90
2023/10/18 13:23:59;;;;;;;14.40;7.30;;;14.40;99.90;;;;;;5064312;28;20028;-90
2023/10/18 13:26:37;;;;;;;9.60;7.80;;;13.80;99.90;;;;;;5063065;28;20484;-91
2023/10/18 13:29:12;;;;;;;11.50;6.45;;;14.60;99.90;;;;;;5061575;28;20053;-90
2023/10/18 13:31:52;;;;;;;7.82;6.88;;;13.30;99.90;;;;;;5058738;28;20017;-90
2023/10/18 13:34:27;;;;;;;9.35;7.78;;;13.20;99.90;;;;;;5059303;28;20025;-90
2023/10/18 13:36:54;;;;;;;9.68;7.63;;;14.20;99.90;;;;;;5068839;28;20084;-91
2023/10/18 13:39:23;;;;;;;11.95;7.25;;;13.50;99.90;;;;;;5057786;28;20036;-90
2023/10/18 13:41:57;;;;;;;9.68;7.07;;;13.50;99.90;;;;;;5072181;28;20039;-91
2023/10/18 13:44:41;;;;;;;9.60;7.80;;;14.50;99.90;;;;;;5057894;28;20021;-91
2023/10/18 13:47:11;;;;;;;8.88;7.20;;;13.30;99.90;;;;;;5056723;28;20029;-90
2023/10/18 13:49:46;;;;;;;;;;;14.10;99.90;;;;;;5057594;28;20087;-91
2023/10/18 13:52:12;;;;;;;8.25;7.40;;;13.40;99.90;;;;;;5057701;28;19924;-90
2023/10/18 13:54:40;;;;;;;9.63;7.15;;;13.30;99.90;;;;;;5057590;28;20120;-90
2023/10/18 13:57:16;;;;;;;13.65;7.82;;;14.90;99.90;;;;;;5057292;28;20473;-90
2023/10/18 13:59:42;;;;;;;12.38;7.25;;;14.40;99.90;;;;;;5058027;28;20056;-90
2023/10/18 14:02:17;;;;;;;13.50;8.30;;;14.50;99.90;;;;;;5058600;28;20043;-90
2023/10/18 14:04:45;;;;;;;10.32;7.05;;;14.60;99.90;;;;;;5073077;28;20013;-90
2023/10/18 14:07:18;;;;;;;12.23;8.07;;;13.50;99.90;;;;;;5079794;28;20020;-90
2023/10/18 14:09:47;;;;;;;11.30;7.50;;;14.50;99.90;;;;;;5077842;28;20091;-91
2023/10/18 14:12:13;;;;;;;13.77;8.35;;;14.70;99.90;;;;;;5078553;22;20129;-91
2023/10/18 14:14:40;;;;;;;13.95;8.23;;;14.60;99.90;;;;;;5065378;28;20029;-90